createdAt,value
2019-05-18T00:00:11.882Z,0.00
2019-05-18T00:01:11.816Z,0.00
2019-05-18T00:02:11.827Z,0.00
2019-05-18T00:03:11.838Z,0.00
2019-05-18T00:04:11.841Z,0.00
2019-05-18T00:05:11.851Z,0.00
2019-05-18T00:06:11.863Z,0.00
2019-05-18T00:07:11.871Z,0.00
2019-05-18T00:08:11.874Z,0.00
2019-05-18T00:09:11.884Z,0.00
2019-05-18T00:10:11.891Z,0.00
2019-05-18T00:11:11.899Z,0.00
2019-05-18T00:12:11.908Z,0.00
2019-05-18T00:13:11.916Z,0.00
2019-05-18T00:14:11.929Z,0.00
2019-05-18T00:15:11.935Z,0.00
2019-05-18T00:16:11.937Z,0.00
2019-05-18T00:17:24.498Z,0.00
2019-05-18T00:18:11.960Z,0.00
2019-05-18T00:19:11.965Z,0.00
2019-05-18T00:20:11.981Z,0.00
2019-05-18T00:21:11.985Z,0.00
2019-05-18T00:22:11.995Z,0.00
2019-05-18T00:23:12.001Z,0.00
2019-05-18T00:24:12.010Z,0.00
2019-05-18T00:25:12.065Z,0.00
2019-05-18T00:26:12.029Z,0.00
2019-05-18T00:27:12.037Z,0.00
2019-05-18T00:28:12.048Z,0.00
2019-05-18T00:29:12.063Z,0.00
2019-05-18T00:30:12.062Z,0.00
2019-05-18T00:31:12.069Z,0.00
2019-05-18T00:32:12.093Z,0.00
2019-05-18T00:33:12.085Z,0.00
2019-05-18T00:34:12.094Z,0.00
2019-05-18T00:35:12.112Z,0.00
2019-05-18T00:36:12.109Z,0.00
2019-05-18T00:37:12.121Z,0.00
2019-05-18T00:38:12.132Z,0.00
2019-05-18T00:39:12.137Z,0.00
2019-05-18T00:40:12.145Z,0.00
2019-05-18T00:41:12.152Z,0.00
2019-05-18T00:42:12.161Z,0.00
2019-05-18T00:43:12.169Z,0.00
2019-05-18T00:44:12.179Z,0.00
2019-05-18T00:45:12.186Z,0.00
2019-05-18T00:46:12.195Z,0.00
2019-05-18T00:47:12.199Z,0.00
2019-05-18T00:48:12.215Z,0.00
2019-05-18T00:49:12.216Z,0.00
2019-05-18T00:50:12.234Z,0.00
2019-05-18T00:51:12.236Z,0.00
2019-05-18T00:52:12.245Z,0.00
2019-05-18T00:53:12.254Z,0.00
2019-05-18T00:54:12.262Z,0.00
2019-05-18T00:55:12.267Z,0.00
2019-05-18T00:56:12.296Z,0.00
2019-05-18T00:57:12.286Z,0.00
2019-05-18T00:58:12.296Z,0.00
2019-05-18T00:59:16.102Z,0.00
2019-05-18T01:00:12.311Z,0.00
2019-05-18T01:01:12.326Z,0.00
2019-05-18T01:02:12.326Z,0.00
2019-05-18T01:03:12.336Z,0.00
2019-05-18T01:04:12.343Z,0.00
2019-05-18T01:05:12.353Z,0.00
2019-05-18T01:06:12.361Z,0.00
2019-05-18T01:07:12.366Z,0.00
2019-05-18T01:08:12.377Z,0.00
2019-05-18T01:09:12.388Z,0.00
2019-05-18T01:10:12.395Z,0.00
2019-05-18T01:11:12.401Z,0.00
2019-05-18T01:12:12.409Z,0.00
2019-05-18T01:13:12.418Z,0.00
2019-05-18T01:14:12.422Z,0.00
2019-05-18T01:15:12.437Z,0.00
2019-05-18T01:16:12.445Z,0.00
2019-05-18T01:17:12.452Z,0.00
2019-05-18T01:18:12.459Z,0.00
2019-05-18T01:19:12.469Z,0.00
2019-05-18T01:20:12.477Z,0.00
2019-05-18T01:21:12.483Z,0.00
2019-05-18T01:22:12.492Z,0.00
2019-05-18T01:23:12.499Z,0.00
2019-05-18T01:24:12.509Z,0.00
2019-05-18T01:25:12.516Z,0.00
2019-05-18T01:26:12.525Z,0.00
2019-05-18T01:27:12.534Z,0.00
2019-05-18T01:28:12.544Z,0.00
2019-05-18T01:29:12.551Z,0.00
2019-05-18T01:30:12.551Z,0.00
2019-05-18T01:31:12.565Z,0.00
2019-05-18T01:32:12.578Z,0.00
2019-05-18T01:33:12.581Z,0.00
2019-05-18T01:34:12.590Z,0.00
2019-05-18T01:35:12.607Z,0.00
2019-05-18T01:36:12.609Z,0.00
2019-05-18T01:37:12.615Z,0.00
2019-05-18T01:38:12.621Z,0.00
2019-05-18T01:39:12.632Z,0.00
2019-05-18T01:40:12.641Z,0.00
2019-05-18T01:41:12.653Z,0.00
2019-05-18T01:42:12.654Z,0.00
2019-05-18T01:43:12.661Z,0.00
2019-05-18T01:44:12.667Z,0.00
2019-05-18T01:45:17.303Z,0.00
2019-05-18T01:46:12.687Z,0.00
2019-05-18T01:47:12.696Z,0.00
2019-05-18T01:48:14.559Z,0.00
2019-05-18T01:49:12.710Z,0.00
2019-05-18T01:50:12.720Z,0.00
2019-05-18T01:51:12.726Z,0.00
2019-05-18T01:52:12.738Z,0.00
2019-05-18T01:53:12.741Z,0.00
2019-05-18T01:54:12.757Z,0.00
2019-05-18T01:55:12.757Z,0.00
2019-05-18T01:56:12.766Z,0.00
2019-05-18T01:57:12.775Z,0.00
2019-05-18T01:58:12.778Z,0.00
2019-05-18T01:59:12.784Z,0.00
2019-05-18T02:00:12.797Z,0.00
2019-05-18T02:01:12.801Z,0.00
2019-05-18T02:02:12.815Z,0.00
2019-05-18T02:03:12.822Z,0.00
2019-05-18T02:04:12.830Z,0.00
2019-05-18T02:05:12.843Z,0.00
2019-05-18T02:06:12.842Z,0.00
2019-05-18T02:07:12.859Z,0.00
2019-05-18T02:08:12.864Z,0.00
2019-05-18T02:09:12.862Z,0.00
2019-05-18T02:10:12.870Z,0.00
2019-05-18T02:11:12.882Z,0.00
2019-05-18T02:12:12.889Z,0.00
2019-05-18T02:13:12.902Z,0.00
2019-05-18T02:14:12.903Z,0.00
2019-05-18T02:15:12.919Z,0.00
2019-05-18T02:16:12.922Z,0.00
2019-05-18T02:17:12.932Z,0.00
2019-05-18T02:18:26.871Z,0.00
2019-05-18T02:19:12.949Z,0.00
2019-05-18T02:20:12.955Z,0.00
2019-05-18T02:21:12.964Z,0.00
2019-05-18T02:22:12.969Z,0.00
2019-05-18T02:23:12.979Z,0.00
2019-05-18T02:24:13.011Z,0.00
2019-05-18T02:25:12.993Z,0.00
2019-05-18T02:26:13.004Z,0.00
2019-05-18T02:27:13.007Z,0.00
2019-05-18T02:28:13.017Z,0.00
2019-05-18T02:29:13.027Z,0.00
2019-05-18T02:30:17.231Z,0.00
2019-05-18T02:31:13.045Z,0.00
2019-05-18T02:32:13.052Z,0.00
2019-05-18T02:33:13.052Z,0.00
2019-05-18T02:34:13.065Z,0.00
2019-05-18T02:35:13.099Z,0.00
2019-05-18T02:36:13.085Z,0.00
2019-05-18T02:37:13.083Z,0.00
2019-05-18T02:38:13.097Z,0.00
2019-05-18T02:39:13.108Z,0.00
2019-05-18T02:40:13.113Z,0.00
2019-05-18T02:41:13.135Z,0.00
2019-05-18T02:42:13.127Z,0.00
2019-05-18T02:43:13.134Z,0.00
2019-05-18T02:44:13.143Z,0.00
2019-05-18T02:45:13.150Z,0.00
2019-05-18T02:46:13.157Z,0.00
2019-05-18T02:47:13.169Z,0.00
2019-05-18T02:48:13.170Z,0.00
2019-05-18T02:49:13.179Z,0.00
2019-05-18T02:50:13.201Z,0.00
2019-05-18T02:51:13.191Z,0.00
2019-05-18T02:52:13.200Z,0.00
2019-05-18T02:53:13.214Z,0.00
2019-05-18T02:54:13.219Z,0.00
2019-05-18T02:55:13.224Z,0.00
2019-05-18T02:56:13.240Z,0.00
2019-05-18T02:57:13.263Z,0.00
2019-05-18T02:58:13.250Z,0.00
2019-05-18T02:59:13.257Z,0.00
2019-05-18T03:00:13.265Z,0.00
2019-05-18T03:01:13.272Z,0.00
2019-05-18T03:02:13.277Z,0.00
2019-05-18T03:03:13.285Z,0.00
2019-05-18T03:04:13.296Z,0.00
2019-05-18T03:05:13.310Z,0.00
2019-05-18T03:06:13.308Z,0.00
2019-05-18T03:07:13.318Z,0.00
2019-05-18T03:08:13.329Z,0.00
2019-05-18T03:09:13.330Z,0.00
2019-05-18T03:10:13.340Z,0.00
2019-05-18T03:11:13.350Z,0.00
2019-05-18T03:12:13.356Z,0.00
2019-05-18T03:13:13.369Z,0.00
2019-05-18T03:14:13.377Z,0.00
2019-05-18T03:15:13.377Z,0.00
2019-05-18T03:16:13.388Z,0.00
2019-05-18T03:17:13.390Z,0.00
2019-05-18T03:18:13.404Z,0.00
2019-05-18T03:19:13.410Z,0.00
2019-05-18T03:20:13.418Z,0.00
2019-05-18T03:21:13.418Z,0.00
2019-05-18T03:22:13.432Z,0.00
2019-05-18T03:23:13.438Z,0.00
2019-05-18T03:24:13.452Z,0.00
2019-05-18T03:25:13.465Z,0.00
2019-05-18T03:26:13.464Z,0.00
2019-05-18T03:27:13.474Z,0.00
2019-05-18T03:28:13.476Z,0.00
2019-05-18T03:29:13.489Z,0.00
2019-05-18T03:30:13.496Z,0.00
2019-05-18T03:31:13.502Z,0.00
2019-05-18T03:32:13.508Z,0.00
2019-05-18T03:33:13.555Z,0.00
2019-05-18T03:34:13.526Z,0.00
2019-05-18T03:35:13.537Z,0.00
2019-05-18T03:36:13.538Z,0.00
2019-05-18T03:37:13.545Z,0.00
2019-05-18T03:38:13.551Z,0.00
2019-05-18T03:39:13.568Z,0.00
2019-05-18T03:40:13.567Z,0.00
2019-05-18T03:41:13.577Z,0.00
2019-05-18T03:42:13.584Z,0.00
2019-05-18T03:43:13.592Z,5.63
2019-05-18T03:44:13.599Z,5.63
2019-05-18T03:45:13.614Z,5.63
2019-05-18T03:46:13.613Z,5.63
2019-05-18T03:47:13.622Z,5.63
2019-05-18T03:48:13.631Z,5.63
2019-05-18T03:49:26.090Z,5.63
2019-05-18T03:50:13.661Z,5.63
2019-05-18T03:51:13.648Z,5.63
2019-05-18T03:52:13.657Z,5.63
2019-05-18T03:53:13.665Z,5.63
2019-05-18T03:54:13.670Z,5.63
2019-05-18T03:55:13.683Z,11.25
2019-05-18T03:56:13.692Z,11.25
2019-05-18T03:57:13.700Z,11.25
2019-05-18T03:58:13.703Z,11.25
2019-05-18T03:59:13.710Z,11.25
2019-05-18T04:00:13.716Z,11.25
2019-05-18T04:01:13.749Z,11.25
2019-05-18T04:02:13.732Z,11.25
2019-05-18T04:03:13.739Z,11.25
2019-05-18T04:04:13.747Z,11.25
2019-05-18T04:05:13.814Z,11.25
2019-05-18T04:06:13.762Z,11.25
2019-05-18T04:07:13.766Z,16.88
2019-05-18T04:08:13.783Z,16.88
2019-05-18T04:09:13.786Z,16.88
2019-05-18T04:10:13.789Z,16.88
2019-05-18T04:11:13.798Z,16.88
2019-05-18T04:12:13.816Z,16.88
2019-05-18T04:13:13.820Z,16.88
2019-05-18T04:14:13.828Z,16.88
2019-05-18T04:15:13.823Z,16.88
2019-05-18T04:16:13.837Z,16.88
2019-05-18T04:17:13.850Z,16.88
2019-05-18T04:18:13.854Z,16.88
2019-05-18T04:19:13.859Z,22.50
2019-05-18T04:20:13.863Z,22.50
2019-05-18T04:21:13.875Z,22.50
2019-05-18T04:22:13.909Z,22.50
2019-05-18T04:23:13.887Z,22.50
2019-05-18T04:24:13.896Z,22.50
2019-05-18T04:25:13.901Z,22.50
2019-05-18T04:26:13.910Z,22.50
2019-05-18T04:27:13.931Z,22.50
2019-05-18T04:28:13.926Z,22.50
2019-05-18T04:29:13.931Z,28.13
2019-05-18T04:30:13.938Z,28.13
2019-05-18T04:31:13.948Z,28.13
2019-05-18T04:32:13.959Z,28.13
2019-05-18T04:33:13.962Z,28.13
2019-05-18T04:34:13.971Z,28.13
2019-05-18T04:35:13.978Z,28.13
2019-05-18T04:36:13.990Z,28.13
2019-05-18T04:37:13.993Z,28.13
2019-05-18T04:38:13.999Z,28.13
2019-05-18T04:39:14.010Z,28.13
2019-05-18T04:40:14.014Z,28.13
2019-05-18T04:41:14.021Z,28.13
2019-05-18T04:42:14.030Z,33.75
2019-05-18T04:43:14.039Z,33.75
2019-05-18T04:44:14.046Z,33.75
2019-05-18T04:45:14.053Z,33.75
2019-05-18T04:46:14.057Z,33.75
2019-05-18T04:47:14.064Z,33.75
2019-05-18T04:48:14.076Z,33.75
2019-05-18T04:49:14.083Z,33.75
2019-05-18T04:50:14.090Z,33.75
2019-05-18T04:51:14.104Z,33.75
2019-05-18T04:52:14.100Z,39.38
2019-05-18T04:53:14.119Z,39.38
2019-05-18T04:54:14.120Z,39.38
2019-05-18T04:55:14.122Z,39.38
2019-05-18T04:56:14.135Z,39.38
2019-05-18T04:57:14.142Z,39.38
2019-05-18T04:58:14.147Z,39.38
2019-05-18T04:59:14.151Z,39.38
2019-05-18T05:00:14.173Z,39.38
2019-05-18T05:01:14.175Z,39.38
2019-05-18T05:02:14.179Z,39.38
2019-05-18T05:03:14.185Z,39.38
2019-05-18T05:04:14.193Z,45.00
2019-05-18T05:05:14.201Z,45.00
2019-05-18T05:06:14.223Z,45.00
2019-05-18T05:07:14.221Z,45.00
2019-05-18T05:08:14.226Z,45.00
2019-05-18T05:09:14.227Z,45.00
2019-05-18T05:10:14.241Z,45.00
2019-05-18T05:11:14.246Z,45.00
2019-05-18T05:12:14.253Z,45.00
2019-05-18T05:13:14.257Z,45.00
2019-05-18T05:14:14.263Z,45.00
2019-05-18T05:15:14.276Z,45.00
2019-05-18T05:16:14.280Z,45.00
2019-05-18T05:17:14.292Z,39.38
2019-05-18T05:18:14.297Z,45.00
2019-05-18T05:19:14.303Z,39.38
2019-05-18T05:20:19.571Z,39.38
2019-05-18T05:21:14.322Z,39.38
2019-05-18T05:22:14.327Z,39.38
2019-05-18T05:23:14.337Z,39.38
2019-05-18T05:24:14.343Z,39.38
2019-05-18T05:25:14.348Z,45.00
2019-05-18T05:26:14.357Z,45.00
2019-05-18T05:27:14.365Z,45.00
2019-05-18T05:28:14.372Z,45.00
2019-05-18T05:29:14.380Z,45.00
2019-05-18T05:30:14.393Z,45.00
2019-05-18T05:31:14.396Z,45.00
2019-05-18T05:32:14.407Z,45.00
2019-05-18T05:33:14.407Z,45.00
2019-05-18T05:34:14.419Z,45.00
2019-05-18T05:35:14.428Z,45.00
2019-05-18T05:36:14.430Z,45.00
2019-05-18T05:37:14.440Z,45.00
2019-05-18T05:38:14.445Z,45.00
2019-05-18T05:39:14.454Z,50.63
2019-05-18T05:40:14.482Z,50.63
2019-05-18T05:41:16.661Z,50.63
2019-05-18T05:42:14.483Z,56.25
2019-05-18T05:43:14.486Z,56.25
2019-05-18T05:44:14.491Z,50.63
2019-05-18T05:45:14.499Z,56.25
2019-05-18T05:46:14.506Z,56.25
2019-05-18T05:47:14.517Z,56.25
2019-05-18T05:48:14.525Z,56.25
2019-05-18T05:49:14.528Z,56.25
2019-05-18T05:50:14.537Z,56.25
2019-05-18T05:51:14.546Z,61.88
2019-05-18T05:52:14.555Z,61.88
2019-05-18T05:53:14.565Z,61.88
2019-05-18T05:54:14.569Z,61.88
2019-05-18T05:55:14.579Z,61.88
2019-05-18T05:56:14.587Z,61.88
2019-05-18T05:57:14.589Z,61.88
2019-05-18T05:58:14.600Z,61.88
2019-05-18T05:59:14.607Z,61.88
2019-05-18T06:00:14.616Z,61.88
2019-05-18T06:01:14.623Z,61.88
2019-05-18T06:02:14.628Z,61.88
2019-05-18T06:03:14.638Z,61.88
2019-05-18T06:04:14.647Z,61.88
2019-05-18T06:05:14.654Z,61.88
2019-05-18T06:06:14.662Z,16.88
2019-05-18T06:07:14.669Z,61.88
2019-05-18T06:08:14.673Z,61.88
2019-05-18T06:09:14.685Z,61.88
2019-05-18T06:10:14.693Z,61.88
2019-05-18T06:11:14.713Z,67.50
2019-05-18T06:12:14.711Z,61.88
2019-05-18T06:13:14.718Z,67.50
2019-05-18T06:14:14.718Z,67.50
2019-05-18T06:15:14.731Z,67.50
2019-05-18T06:16:14.740Z,67.50
2019-05-18T06:17:14.747Z,67.50
2019-05-18T06:18:14.764Z,61.88
2019-05-18T06:19:14.786Z,61.88
2019-05-18T06:20:14.769Z,61.88
2019-05-18T06:21:14.779Z,56.25
2019-05-18T06:22:14.791Z,56.25
2019-05-18T06:23:14.790Z,61.88
2019-05-18T06:24:14.801Z,67.50
2019-05-18T06:25:14.827Z,67.50
2019-05-18T06:26:14.823Z,67.50
2019-05-18T06:27:14.825Z,67.50
2019-05-18T06:28:14.832Z,67.50
2019-05-18T06:29:14.839Z,67.50
2019-05-18T06:30:14.848Z,67.50
2019-05-18T06:31:14.859Z,67.50
2019-05-18T06:32:14.860Z,67.50
2019-05-18T06:33:14.868Z,67.50
2019-05-18T06:34:14.880Z,67.50
2019-05-18T06:35:14.884Z,67.50
2019-05-18T06:36:14.896Z,67.50
2019-05-18T06:37:14.903Z,73.13
2019-05-18T06:38:14.910Z,73.13
2019-05-18T06:39:14.916Z,73.13
2019-05-18T06:40:14.927Z,73.13
2019-05-18T06:41:14.933Z,73.13
2019-05-18T06:42:14.964Z,73.13
2019-05-18T06:43:14.947Z,73.13
2019-05-18T06:44:14.958Z,73.13
2019-05-18T06:45:14.971Z,73.13
2019-05-18T06:46:14.971Z,73.13
2019-05-18T06:47:14.981Z,78.75
2019-05-18T06:48:14.990Z,73.13
2019-05-18T06:49:15.005Z,84.38
2019-05-18T06:50:15.009Z,90.00
2019-05-18T06:51:15.022Z,101.25
2019-05-18T06:52:15.019Z,84.38
2019-05-18T06:53:15.028Z,90.00
2019-05-18T06:54:15.036Z,84.38
2019-05-18T06:55:15.046Z,84.38
2019-05-18T06:56:15.058Z,90.00
2019-05-18T06:57:15.061Z,95.63
2019-05-18T06:58:15.070Z,101.25
2019-05-18T06:59:16.390Z,101.25
2019-05-18T07:00:15.087Z,101.25
2019-05-18T07:01:15.092Z,95.63
2019-05-18T07:02:15.101Z,101.25
2019-05-18T07:03:15.107Z,101.25
2019-05-18T07:04:15.118Z,101.25
2019-05-18T07:05:15.128Z,101.25
2019-05-18T07:06:15.131Z,106.88
2019-05-18T07:07:15.142Z,106.88
2019-05-18T07:08:15.156Z,112.50
2019-05-18T07:09:15.156Z,118.13
2019-05-18T07:10:15.195Z,118.13
2019-05-18T07:11:15.176Z,118.13
2019-05-18T07:12:15.186Z,118.13
2019-05-18T07:13:15.191Z,118.13
2019-05-18T07:14:25.250Z,123.75
2019-05-18T07:15:15.210Z,123.75
2019-05-18T07:16:15.215Z,123.75
2019-05-18T07:17:15.227Z,123.75
2019-05-18T07:18:15.239Z,123.75
2019-05-18T07:19:15.244Z,129.38
2019-05-18T07:20:15.252Z,129.38
2019-05-18T07:21:22.401Z,123.75
2019-05-18T07:22:15.266Z,118.13
2019-05-18T07:23:15.277Z,112.50
2019-05-18T07:24:15.303Z,112.50
2019-05-18T07:25:15.300Z,106.88
2019-05-18T07:26:15.305Z,106.88
2019-05-18T07:27:15.309Z,106.88
2019-05-18T07:28:15.322Z,101.25
2019-05-18T07:29:15.326Z,101.25
2019-05-18T07:30:15.339Z,106.88
2019-05-18T07:31:15.343Z,101.25
2019-05-18T07:32:15.355Z,101.25
2019-05-18T07:33:15.358Z,101.25
2019-05-18T07:34:15.368Z,101.25
2019-05-18T07:35:15.377Z,95.63
2019-05-18T07:36:15.390Z,95.63
2019-05-18T07:37:15.396Z,95.63
2019-05-18T07:38:15.403Z,95.63
2019-05-18T07:39:15.417Z,95.63
2019-05-18T07:40:15.423Z,95.63
2019-05-18T07:41:15.433Z,95.63
2019-05-18T07:42:15.440Z,95.63
2019-05-18T07:43:15.449Z,95.63
2019-05-18T07:44:15.461Z,95.63
2019-05-18T07:45:15.464Z,95.63
2019-05-18T07:46:15.473Z,95.63
2019-05-18T07:47:15.481Z,106.88
2019-05-18T07:48:15.486Z,106.88
2019-05-18T07:49:15.497Z,95.63
2019-05-18T07:50:15.507Z,95.63
2019-05-18T07:51:15.517Z,90.00
2019-05-18T07:52:17.276Z,95.63
2019-05-18T07:53:15.531Z,95.63
2019-05-18T07:54:15.541Z,101.25
2019-05-18T07:55:15.551Z,101.25
2019-05-18T07:56:15.560Z,106.88
2019-05-18T07:57:15.570Z,106.88
2019-05-18T07:58:15.589Z,106.88
2019-05-18T07:59:15.581Z,106.88
2019-05-18T08:00:15.590Z,106.88
2019-05-18T08:01:15.601Z,106.88
2019-05-18T08:02:15.610Z,106.88
2019-05-18T08:03:15.616Z,106.88
2019-05-18T08:04:15.629Z,106.88
2019-05-18T08:05:15.636Z,106.88
2019-05-18T08:06:15.641Z,106.88
2019-05-18T08:07:15.652Z,106.88
2019-05-18T08:08:15.661Z,106.88
2019-05-18T08:09:15.667Z,112.50
2019-05-18T08:10:15.681Z,112.50
2019-05-18T08:11:15.717Z,112.50
2019-05-18T08:12:15.694Z,112.50
2019-05-18T08:13:15.775Z,112.50
2019-05-18T08:14:15.715Z,112.50
2019-05-18T08:15:15.722Z,112.50
2019-05-18T08:16:15.734Z,112.50
2019-05-18T08:17:15.740Z,112.50
2019-05-18T08:18:15.748Z,118.13
2019-05-18T08:19:15.758Z,112.50
2019-05-18T08:20:15.766Z,112.50
2019-05-18T08:21:15.784Z,112.50
2019-05-18T08:22:15.785Z,112.50
2019-05-18T08:23:15.795Z,112.50
2019-05-18T08:24:15.803Z,118.13
2019-05-18T08:25:15.810Z,106.88
2019-05-18T08:26:15.831Z,118.13
2019-05-18T08:27:15.831Z,123.75
2019-05-18T08:28:15.845Z,123.75
2019-05-18T08:29:15.849Z,123.75
2019-05-18T08:30:15.863Z,129.38
2019-05-18T08:31:15.865Z,129.38
2019-05-18T08:32:15.872Z,129.38
2019-05-18T08:33:15.880Z,129.38
2019-05-18T08:34:15.893Z,129.38
2019-05-18T08:35:15.902Z,123.75
2019-05-18T08:36:15.911Z,129.38
2019-05-18T08:37:15.946Z,129.38
2019-05-18T08:38:15.928Z,135.00
2019-05-18T08:39:15.934Z,129.38
2019-05-18T08:40:15.944Z,129.38
2019-05-18T08:41:15.954Z,129.38
2019-05-18T08:42:15.965Z,135.00
2019-05-18T08:43:15.967Z,140.63
2019-05-18T08:44:15.982Z,140.63
2019-05-18T08:45:15.987Z,146.25
2019-05-18T08:46:15.998Z,146.25
2019-05-18T08:47:16.011Z,151.88
2019-05-18T08:48:16.015Z,151.88
2019-05-18T08:49:16.028Z,157.50
2019-05-18T08:50:16.035Z,163.13
2019-05-18T08:51:16.040Z,168.75
2019-05-18T08:52:16.055Z,174.38
2019-05-18T08:53:16.065Z,174.38
2019-05-18T08:54:16.070Z,180.00
2019-05-18T08:55:16.079Z,180.00
2019-05-18T08:56:16.097Z,185.63
2019-05-18T08:57:16.098Z,185.63
2019-05-18T08:58:16.107Z,191.25
2019-05-18T08:59:16.117Z,191.25
2019-05-18T09:00:16.125Z,196.88
2019-05-18T09:01:16.132Z,196.88
2019-05-18T09:02:17.684Z,196.88
2019-05-18T09:03:23.848Z,208.13
2019-05-18T09:05:20.641Z,202.50
2019-05-18T09:06:20.638Z,208.13
2019-05-18T09:08:25.238Z,208.13
2019-05-18T09:09:25.262Z,208.13
2019-05-18T09:11:29.629Z,202.50
2019-05-18T09:12:29.623Z,202.50
2019-05-18T09:14:34.108Z,208.13
2019-05-18T09:15:34.116Z,208.13
2019-05-18T09:17:38.619Z,208.13
2019-05-18T09:18:38.608Z,208.13
2019-05-18T09:20:43.080Z,219.38
2019-05-18T09:21:43.086Z,225.00
2019-05-18T09:23:36.510Z,230.63
2019-05-18T09:24:36.511Z,236.25
2019-05-18T09:26:41.016Z,253.13
2019-05-18T09:27:41.007Z,253.13
2019-05-18T09:29:45.520Z,258.75
2019-05-18T09:30:45.507Z,264.38
2019-05-18T09:32:50.011Z,270.00
2019-05-18T09:33:50.015Z,270.00
2019-05-18T09:35:55.541Z,275.63
2019-05-18T09:36:55.542Z,275.63
2019-05-18T09:39:00.075Z,281.25
2019-05-18T09:40:00.061Z,281.25
2019-05-18T09:42:04.575Z,286.88
2019-05-18T09:43:04.578Z,286.88
2019-05-18T09:45:09.114Z,281.25
2019-05-18T09:46:09.110Z,275.63
2019-05-18T09:48:13.609Z,270.00
2019-05-18T09:49:13.609Z,270.00
2019-05-18T09:51:18.122Z,264.38
2019-05-18T09:52:18.127Z,258.75
2019-05-18T09:54:11.589Z,253.13
2019-05-18T09:55:11.552Z,253.13
2019-05-18T09:57:16.055Z,253.13
2019-05-18T09:58:16.060Z,258.75
2019-05-18T10:00:20.546Z,264.38
2019-05-18T10:01:20.647Z,253.13
2019-05-18T10:03:25.081Z,247.50
2019-05-18T10:04:25.060Z,247.50
2019-05-18T10:05:25.120Z,247.50
2019-05-18T10:06:25.080Z,247.50
2019-05-18T10:07:25.154Z,247.50
2019-05-18T10:08:25.097Z,247.50
2019-05-18T10:09:25.401Z,247.50
2019-05-18T10:10:25.119Z,247.50
2019-05-18T10:11:25.144Z,253.13
2019-05-18T10:12:25.138Z,253.13
2019-05-18T10:13:25.178Z,253.13
2019-05-18T10:14:25.158Z,258.75
2019-05-18T10:15:25.175Z,258.75
2019-05-18T10:16:25.183Z,258.75
2019-05-18T10:17:25.198Z,258.75
2019-05-18T10:18:25.206Z,258.75
2019-05-18T10:19:25.227Z,253.13
2019-05-18T10:20:25.227Z,253.13
2019-05-18T10:21:25.243Z,258.75
2019-05-18T10:22:25.252Z,258.75
2019-05-18T10:23:25.262Z,258.75
2019-05-18T10:24:25.273Z,258.75
2019-05-18T10:25:25.282Z,258.75
2019-05-18T10:26:25.292Z,258.75
2019-05-18T10:27:25.299Z,264.38
2019-05-18T10:28:25.312Z,264.38
2019-05-18T10:29:25.327Z,264.38
2019-05-18T10:30:25.336Z,264.38
2019-05-18T10:31:25.345Z,264.38
2019-05-18T10:32:25.352Z,270.00
2019-05-18T10:33:25.362Z,270.00
2019-05-18T10:34:25.375Z,275.63
2019-05-18T10:35:25.389Z,270.00
2019-05-18T10:36:25.397Z,258.75
2019-05-18T10:37:25.410Z,258.75
2019-05-18T10:38:25.427Z,258.75
2019-05-18T10:39:25.431Z,258.75
2019-05-18T10:40:25.447Z,258.75
2019-05-18T10:41:25.448Z,264.38
2019-05-18T10:42:25.461Z,264.38
2019-05-18T10:43:25.479Z,264.38
2019-05-18T10:44:25.484Z,270.00
2019-05-18T10:45:25.502Z,270.00
2019-05-18T10:46:25.508Z,275.63
2019-05-18T10:47:25.519Z,275.63
2019-05-18T10:48:25.524Z,264.38
2019-05-18T10:49:25.538Z,247.50
2019-05-18T10:50:25.569Z,236.25
2019-05-18T10:51:25.556Z,247.50
2019-05-18T10:52:25.571Z,348.75
2019-05-18T10:53:28.847Z,360.00
2019-05-18T10:54:25.592Z,326.25
2019-05-18T10:55:25.607Z,320.63
2019-05-18T10:56:25.614Z,315.00
2019-05-18T10:57:25.625Z,326.25
2019-05-18T10:58:25.643Z,326.25
2019-05-18T10:59:25.651Z,331.88
2019-05-18T11:00:25.659Z,337.50
2019-05-18T11:01:25.673Z,337.50
2019-05-18T11:02:25.682Z,337.50
2019-05-18T11:03:25.694Z,354.38
2019-05-18T11:04:25.705Z,331.88
2019-05-18T11:05:25.717Z,371.25
2019-05-18T11:06:25.726Z,320.63
2019-05-18T11:07:28.849Z,337.50
2019-05-18T11:08:25.749Z,433.13
2019-05-18T11:09:25.765Z,405.00
2019-05-18T11:10:25.773Z,466.88
2019-05-18T11:11:25.789Z,472.50
2019-05-18T11:12:25.792Z,545.63
2019-05-18T11:13:25.805Z,573.75
2019-05-18T11:14:25.824Z,804.38
2019-05-18T11:15:25.827Z,1676.25
2019-05-18T11:16:25.868Z,2373.75
2019-05-18T11:17:25.849Z,2283.75
2019-05-18T11:18:25.865Z,691.88
2019-05-18T11:19:25.870Z,2373.75
2019-05-18T11:20:25.882Z,2266.88
2019-05-18T11:21:25.898Z,1833.75
2019-05-18T11:22:25.914Z,2306.25
2019-05-18T11:23:25.926Z,2216.25
2019-05-18T11:24:25.976Z,2244.38
2019-05-18T11:25:25.953Z,2373.75
2019-05-18T11:26:25.963Z,2295.00
2019-05-18T11:27:25.980Z,2255.63
2019-05-18T11:28:25.993Z,2216.25
2019-05-18T11:29:26.016Z,2008.13
2019-05-18T11:30:26.018Z,1940.63
2019-05-18T11:31:26.033Z,1839.38
2019-05-18T11:32:26.047Z,1704.38
2019-05-18T11:33:26.063Z,635.63
2019-05-18T11:34:26.087Z,427.50
2019-05-18T11:35:26.094Z,388.13
2019-05-18T11:36:26.111Z,815.63
2019-05-18T11:37:26.123Z,2289.38
2019-05-18T11:38:26.139Z,2711.25
2019-05-18T11:39:26.150Z,2722.50
2019-05-18T11:40:26.164Z,2705.63
2019-05-18T11:41:26.179Z,2784.38
2019-05-18T11:42:26.208Z,2778.75
2019-05-18T11:43:26.223Z,3076.88
2019-05-18T11:44:26.235Z,3088.13
2019-05-18T11:45:26.274Z,3043.13
2019-05-18T11:46:26.264Z,2936.25
2019-05-18T11:47:26.285Z,2812.50
2019-05-18T11:48:26.294Z,3172.50
2019-05-18T11:49:29.088Z,3138.75
2019-05-18T11:50:26.328Z,3093.75
2019-05-18T11:51:26.349Z,731.25
2019-05-18T11:52:26.367Z,630.00
2019-05-18T11:53:26.380Z,3223.13
2019-05-18T11:54:26.407Z,3481.88
2019-05-18T11:55:26.420Z,3577.50
2019-05-18T11:56:26.437Z,2621.25
2019-05-18T11:57:26.455Z,3375.00
2019-05-18T11:58:26.474Z,3560.63
2019-05-18T11:59:26.492Z,3481.88
2019-05-18T12:00:26.519Z,3217.50
2019-05-18T12:01:26.529Z,3335.63
2019-05-18T12:02:26.549Z,3566.25
2019-05-18T12:03:26.570Z,3532.50
2019-05-18T12:04:26.585Z,3633.75
2019-05-18T12:05:26.607Z,3594.38
2019-05-18T12:06:26.632Z,2902.50
2019-05-18T12:07:26.645Z,416.25
2019-05-18T12:08:26.665Z,292.50
2019-05-18T12:09:26.706Z,292.50
2019-05-18T12:10:26.704Z,348.75
2019-05-18T12:11:26.723Z,528.75
2019-05-18T12:12:26.746Z,3628.13
2019-05-18T12:13:26.762Z,3757.50
2019-05-18T12:14:26.782Z,3661.88
2019-05-18T12:15:26.797Z,3577.50
2019-05-18T12:16:26.819Z,3577.50
2019-05-18T12:17:26.838Z,3397.50
2019-05-18T12:18:26.855Z,3448.13
2019-05-18T12:19:26.874Z,3453.75
2019-05-18T12:20:26.893Z,3363.75
2019-05-18T12:21:26.911Z,3301.88
2019-05-18T12:22:26.933Z,793.13
2019-05-18T12:23:26.955Z,3200.63
2019-05-18T12:24:26.973Z,3144.38
2019-05-18T12:25:27.014Z,3026.25
2019-05-18T12:26:27.012Z,2598.75
2019-05-18T12:27:27.033Z,1968.75
2019-05-18T12:28:27.052Z,1423.13
2019-05-18T12:29:27.075Z,1198.13
2019-05-18T12:30:27.102Z,1130.63
2019-05-18T12:31:27.111Z,950.63
2019-05-18T12:32:27.127Z,1260.00
2019-05-18T12:33:27.166Z,1541.25
2019-05-18T12:34:27.174Z,1721.25
2019-05-18T12:35:27.193Z,1440.00
2019-05-18T12:36:27.215Z,1293.75
2019-05-18T12:37:27.235Z,1091.25
2019-05-18T12:38:27.254Z,916.88
2019-05-18T12:39:27.279Z,534.38
2019-05-18T12:40:27.300Z,540.00
2019-05-18T12:41:27.320Z,933.75
2019-05-18T12:42:27.336Z,703.13
2019-05-18T12:43:27.411Z,916.88
2019-05-18T12:44:27.384Z,916.88
2019-05-18T12:45:27.402Z,888.75
2019-05-18T12:46:27.414Z,905.63
2019-05-18T12:47:27.436Z,961.88
2019-05-18T12:48:27.459Z,967.50
2019-05-18T12:49:27.481Z,871.88
2019-05-18T12:50:27.495Z,826.88
2019-05-18T12:51:27.513Z,804.38
2019-05-18T12:52:27.534Z,821.25
2019-05-18T12:53:27.560Z,843.75
2019-05-18T12:54:33.969Z,871.88
2019-05-18T12:55:27.594Z,821.25
2019-05-18T12:56:27.614Z,815.63
2019-05-18T12:57:27.639Z,776.25
2019-05-18T12:58:27.671Z,736.88
2019-05-18T12:59:27.675Z,523.13
2019-05-18T13:00:27.712Z,770.63
2019-05-18T13:01:27.708Z,793.13
2019-05-18T13:02:27.724Z,748.13
2019-05-18T13:03:27.747Z,686.25
2019-05-18T13:04:27.767Z,635.63
2019-05-18T13:05:27.790Z,596.25
2019-05-18T13:06:27.806Z,590.63
2019-05-18T13:07:27.826Z,635.63
2019-05-18T13:08:27.846Z,652.50